Time;durP1;ratioP1;P1;durP2;ratioP2;P2;SDS_P1;SDS_P2;PMS_P1;PMS_P2;Temp;Humidity;BMP_temperature;BMP_pressure;BME280_temperature;BME280_humidity;BME280_pressure;Samples;Min_cycle;Max_cycle;Signal;HPM_P1;HPM_P2
2023/08/31 00:01:29;;;;;;;0.60;0.32;;;12.10;99.90;;;;;;4237333;27;20074;-82
2023/08/31 00:03:30;;;;;;;5.57;0.50;;;12.20;99.90;;;;;;4234118;28;20441;-82
2023/08/31 00:05:31;;;;;;;4.80;0.63;;;12.00;99.90;;;;;;4232351;28;20039;-82
2023/08/31 00:07:33;;;;;;;2.65;0.50;;;12.10;99.90;;;;;;4234263;28;20403;-83
2023/08/31 00:09:34;;;;;;;2.10;0.65;;;12.10;99.90;;;;;;4233870;28;20403;-83
2023/08/31 00:11:35;;;;;;;3.90;0.52;;;12.00;99.90;;;;;;4233325;28;20040;-83
2023/08/31 00:13:36;;;;;;;2.15;0.55;;;12.00;99.90;;;;;;4246138;27;20039;-85
2023/08/31 00:15:37;;;;;;;2.30;0.82;;;12.10;99.90;;;;;;4232443;28;20120;-83
2023/08/31 00:17:38;;;;;;;3.75;0.80;;;12.00;99.90;;;;;;4250733;27;20035;-83
2023/08/31 00:19:39;;;;;;;3.30;1.25;;;12.00;99.90;;;;;;4250893;27;20079;-83
2023/08/31 00:21:39;;;;;;;3.45;0.75;;;12.00;99.90;;;;;;4232376;28;20047;-83
2023/08/31 00:23:40;;;;;;;3.85;0.60;;;12.00;99.90;;;;;;4247707;27;20068;-83
2023/08/31 00:25:43;;;;;;;6.10;0.60;;;12.00;99.90;;;;;;4245472;27;20440;-83
2023/08/31 00:27:47;;;;;;;4.53;0.88;;;12.00;99.90;;;;;;4250296;27;20076;-83
2023/08/31 00:29:50;;;;;;;1.52;0.60;;;11.90;99.90;;;;;;4250219;27;20046;-83
2023/08/31 00:31:53;;;;;;;2.35;0.90;;;11.90;99.90;;;;;;4215561;28;20040;-83
2023/08/31 00:33:53;;;;;;;3.17;0.80;;;12.00;99.90;;;;;;4250415;27;20108;-83
2023/08/31 00:35:56;;;;;;;4.85;0.85;;;11.90;99.90;;;;;;4232820;28;20052;-83
2023/08/31 00:38:00;;;;;;;2.65;0.75;;;11.90;99.90;;;;;;4250877;27;20050;-83
2023/08/31 00:40:01;;;;;;;2.70;1.00;;;11.80;99.90;;;;;;4232466;28;20079;-83
2023/08/31 00:42:03;;;;;;;7.53;1.63;;;11.90;99.90;;;;;;4232372;28;20050;-83
2023/08/31 00:44:04;;;;;;;1.88;0.90;;;11.90;99.90;;;;;;4250425;27;20035;-83
2023/08/31 00:46:06;;;;;;;4.30;0.90;;;11.90;99.90;;;;;;4250195;27;20051;-83
2023/08/31 00:48:07;;;;;;;2.80;1.10;;;11.80;99.90;;;;;;4250554;27;20110;-84
2023/08/31 00:50:08;;;;;;;3.60;0.80;;;11.80;99.90;;;;;;4250446;27;20046;-83
2023/08/31 00:52:10;;;;;;;1.90;0.80;;;11.00;99.90;;;;;;4250008;27;20049;-83
2023/08/31 00:54:10;;;;;;;4.13;1.45;;;12.60;99.90;;;;;;4226413;28;20502;-84
2023/08/31 00:56:13;;;;;;;2.63;1.23;;;11.80;99.90;;;;;;4242705;27;20039;-84
2023/08/31 00:58:14;;;;;;;1.33;0.73;;;12.20;99.90;;;;;;4250182;27;20376;-83
2023/08/31 01:00:16;;;;;;;3.35;1.00;;;11.80;99.90;;;;;;4240634;27;20047;-84
2023/08/31 01:02:24;;;;;;;3.50;0.90;;;11.80;99.90;;;;;;4215079;28;20114;-84
2023/08/31 01:05:04;;;;;;;4.30;1.30;;;11.80;99.90;;;;;;4232740;28;20557;-84
2023/08/31 01:07:24;;;;;;;4.05;1.30;;;11.80;99.90;;;;;;4214980;28;20523;-84
2023/08/31 01:09:46;;;;;;;3.10;1.05;;;11.70;99.90;;;;;;4232549;28;20055;-83
2023/08/31 01:11:58;;;;;;;2.70;1.15;;;12.50;99.90;;;;;;4214931;28;20044;-84
2023/08/31 01:14:11;;;;;;;3.78;1.52;;;11.10;99.90;;;;;;4232912;28;20038;-84
2023/08/31 01:16:14;;;;;;;3.28;1.20;;;11.70;99.90;;;;;;4233041;27;20047;-83
2023/08/31 01:18:21;;;;;;;3.53;1.30;;;11.60;99.90;;;;;;4232882;28;20102;-84
2023/08/31 01:21:05;;;;;;;6.22;1.83;;;11.60;99.90;;;;;;4214334;28;20048;-83
2023/08/31 01:23:18;;;;;;;3.80;1.27;;;11.60;99.90;;;;;;4233499;27;20047;-82
2023/08/31 01:25:26;;;;;;;4.25;2.08;;;11.60;99.90;;;;;;4221503;28;20032;-82
2023/08/31 01:27:27;;;;;;;4.90;1.33;;;11.50;99.90;;;;;;4227561;28;20103;-82
2023/08/31 01:29:30;;;;;;;3.70;1.30;;;11.50;99.90;;;;;;4249510;27;20483;-82
2023/08/31 01:31:31;;;;;;;3.53;1.10;;;11.50;99.90;;;;;;4235314;27;20047;-82
2023/08/31 01:33:31;;;;;;;2.65;1.05;;;11.50;99.90;;;;;;4226895;28;20162;-82
2023/08/31 01:35:41;;;;;;;2.63;1.10;;;11.50;99.90;;;;;;4249127;27;20043;-83
2023/08/31 01:37:53;;;;;;;3.50;1.00;;;11.50;99.90;;;;;;4249482;27;20398;-82
2023/08/31 01:40:27;;;;;;;2.80;0.98;;;11.50;99.90;;;;;;4231059;28;20051;-83
2023/08/31 01:42:29;;;;;;;3.70;1.00;;;;;;;;;;4239805;27;20050;-82
2023/08/31 01:44:33;;;;;;;3.30;1.10;;;11.80;99.90;;;;;;4232506;28;20043;-82
2023/08/31 01:46:34;;;;;;;2.88;1.20;;;11.50;99.90;;;;;;4214410;28;20040;-82
2023/08/31 01:48:41;;;;;;;3.85;1.33;;;11.40;99.90;;;;;;4214149;28;20472;-83
2023/08/31 01:50:43;;;;;;;2.85;0.90;;;10.60;99.90;;;;;;4214142;28;20107;-83
2023/08/31 01:52:44;;;;;;;3.35;0.98;;;11.30;99.90;;;;;;4213902;28;20451;-82
2023/08/31 01:54:45;;;;;;;2.03;0.80;;;11.30;99.90;;;;;;4237350;27;20035;-83
2023/08/31 01:56:46;;;;;;;4.60;0.90;;;11.40;99.90;;;;;;4230321;28;20043;-82
2023/08/31 01:58:46;;;;;;;7.05;1.58;;;11.30;99.90;;;;;;4230704;28;20054;-82
2023/08/31 02:00:47;;;;;;;2.38;0.90;;;11.50;99.90;;;;;;4234856;27;20507;-82
2023/08/31 02:02:48;;;;;;;4.20;1.33;;;11.30;99.90;;;;;;4244431;27;20039;-82
2023/08/31 02:04:50;;;;;;;2.95;0.80;;;11.30;99.90;;;;;;4248992;27;20475;-83
2023/08/31 02:06:51;;;;;;;7.18;1.52;;;11.30;99.90;;;;;;4249183;27;20112;-83
2023/08/31 02:08:52;;;;;;;4.07;1.80;;;11.20;99.90;;;;;;4249139;27;20042;-83
2023/08/31 02:10:54;;;;;;;3.83;0.98;;;11.30;99.90;;;;;;4249088;27;20045;-83
2023/08/31 02:12:55;;;;;;;1.35;0.90;;;11.20;99.90;;;;;;4217458;28;20074;-83
2023/08/31 02:14:55;;;;;;;2.65;0.93;;;11.20;99.90;;;;;;4231358;28;20051;-83
2023/08/31 02:16:56;;;;;;;3.45;1.05;;;11.20;99.90;;;;;;4231006;28;20121;-83
2023/08/31 02:18:58;;;;;;;3.58;0.80;;;12.90;99.90;;;;;;4231833;28;20040;-83
2023/08/31 02:20:59;;;;;;;2.97;1.00;;;12.50;99.90;;;;;;4231970;28;20119;-83
2023/08/31 02:23:00;;;;;;;5.03;1.20;;;11.20;99.90;;;;;;4213236;28;20044;-83
2023/08/31 02:25:01;;;;;;;2.58;0.95;;;11.10;99.90;;;;;;4239694;27;20035;-83
2023/08/31 02:27:02;;;;;;;2.05;0.90;;;11.30;99.90;;;;;;4246282;27;20479;-83
2023/08/31 02:29:03;;;;;;;2.70;0.73;;;10.90;99.90;;;;;;4248652;27;20058;-83
2023/08/31 02:31:04;;;;;;;4.85;0.80;;;11.20;99.90;;;;;;4236605;27;20387;-83
2023/08/31 02:33:05;;;;;;;4.35;0.82;;;11.20;99.90;;;;;;4242326;27;20043;-81
2023/08/31 02:35:07;;;;;;;1.73;0.70;;;11.20;99.90;;;;;;4249124;27;20043;-81
2023/08/31 02:37:07;;;;;;;1.80;0.80;;;11.20;99.90;;;;;;4248089;27;20044;-81
2023/08/31 02:39:08;;;;;;;3.25;1.65;;;11.20;99.90;;;;;;4248626;27;20491;-81
2023/08/31 02:41:09;;;;;;;3.53;1.35;;;11.20;99.90;;;;;;4248539;27;20053;-83
2023/08/31 02:43:10;;;;;;;4.05;0.77;;;11.20;99.90;;;;;;4248316;27;20070;-83
2023/08/31 02:45:11;;;;;;;2.30;0.77;;;11.20;99.90;;;;;;4248474;27;20077;-83
2023/08/31 02:47:11;;;;;;;2.67;0.82;;;11.20;99.90;;;;;;4248517;27;20054;-83
2023/08/31 02:49:13;;;;;;;4.15;1.40;;;11.10;99.90;;;;;;4248324;27;20043;-83
2023/08/31 02:51:14;;;;;;;4.10;0.80;;;11.10;99.90;;;;;;4249048;27;20111;-83
2023/08/31 02:53:15;;;;;;;3.75;0.90;;;11.20;99.90;;;;;;4245326;27;20035;-83
2023/08/31 02:55:16;;;;;;;1.90;0.70;;;11.10;99.90;;;;;;4242087;27;20483;-83
2023/08/31 02:57:19;;;;;;;1.70;0.55;;;11.20;99.90;;;;;;4248822;27;20479;-84
2023/08/31 02:59:20;;;;;;;3.53;0.80;;;11.20;99.90;;;;;;4245598;27;20433;-83
2023/08/31 03:01:23;;;;;;;2.95;0.90;;;11.20;99.90;;;;;;4231128;28;20043;-83
2023/08/31 03:03:23;;;;;;;2.67;0.95;;;11.20;99.90;;;;;;4249211;27;20138;-83
2023/08/31 03:05:24;;;;;;;1.77;1.10;;;11.10;99.90;;;;;;4249362;27;20047;-83
2023/08/31 03:07:25;;;;;;;1.38;0.55;;;11.20;99.90;;;;;;4250529;28;20049;-83
2023/08/31 03:09:26;;;;;;;2.92;0.60;;;11.20;99.90;;;;;;4249557;28;20047;-83
2023/08/31 03:11:26;;;;;;;2.42;0.95;;;11.40;99.90;;;;;;4246164;28;20396;-83
2023/08/31 03:13:27;;;;;;;0.73;0.63;;;11.20;99.90;;;;;;4249017;28;20082;-84
2023/08/31 03:15:28;;;;;;;2.45;0.57;;;11.20;99.90;;;;;;4249292;27;20502;-83
2023/08/31 03:17:29;;;;;;;4.05;0.65;;;11.20;99.90;;;;;;4249969;28;20047;-83
2023/08/31 03:19:29;;;;;;;3.75;0.63;;;11.20;99.90;;;;;;4248747;28;20478;-83
2023/08/31 03:21:30;;;;;;;1.83;0.65;;;11.20;99.90;;;;;;4249107;28;20114;-83
2023/08/31 03:23:31;;;;;;;1.77;0.60;;;11.20;99.90;;;;;;4226702;28;20075;-83
2023/08/31 03:25:33;;;;;;;2.88;1.42;;;11.40;99.90;;;;;;4237533;28;20100;-83
2023/08/31 03:27:34;;;;;;;2.80;0.50;;;11.20;99.90;;;;;;4213552;28;20048;-83
2023/08/31 03:29:36;;;;;;;2.13;0.55;;;11.20;99.90;;;;;;4234764;28;20047;-83
2023/08/31 03:31:37;;;;;;;2.58;0.60;;;11.20;99.90;;;;;;4234430;28;20445;-83
2023/08/31 03:33:38;;;;;;;7.70;0.80;;;11.20;99.90;;;;;;4234585;28;20067;-83
2023/08/31 03:35:39;;;;;;;4.05;1.05;;;11.20;99.90;;;;;;4216475;28;20052;-83
2023/08/31 03:37:40;;;;;;;3.90;0.60;;;11.20;99.90;;;;;;4234401;27;20035;-83
2023/08/31 03:39:42;;;;;;;1.67;0.63;;;11.30;99.90;;;;;;4216245;28;20052;-83
2023/08/31 03:41:43;;;;;;;2.95;0.50;;;11.40;99.90;;;;;;4215805;28;20052;-83
2023/08/31 03:43:45;;;;;;;2.65;0.70;;;11.20;99.90;;;;;;4248002;27;20122;-83
2023/08/31 03:45:45;;;;;;;2.60;0.73;;;11.20;99.90;;;;;;4233195;28;20046;-83
2023/08/31 03:47:46;;;;;;;3.70;0.50;;;11.20;99.90;;;;;;4251176;27;20079;-83
2023/08/31 03:49:47;;;;;;;3.72;0.77;;;11.20;99.90;;;;;;4251013;27;20069;-83
2023/08/31 03:51:48;;;;;;;2.45;0.60;;;11.20;99.90;;;;;;4251225;27;20058;-83
2023/08/31 03:53:49;;;;;;;1.50;0.50;;;11.30;99.90;;;;;;4248114;27;20097;-83
2023/08/31 03:55:50;;;;;;;2.85;0.68;;;11.30;99.90;;;;;;4237488;27;20036;-83
2023/08/31 03:57:51;;;;;;;0.70;0.35;;;11.30;99.90;;;;;;4250871;27;20108;-83
2023/08/31 03:59:52;;;;;;;1.58;0.50;;;11.60;99.90;;;;;;4251236;27;20085;-83
2023/08/31 04:01:53;;;;;;;2.88;0.80;;;11.30;99.90;;;;;;4215270;28;20059;-83
2023/08/31 04:03:53;;;;;;;1.33;0.40;;;11.20;99.90;;;;;;4233250;28;20040;-83
2023/08/31 04:05:56;;;;;;;4.72;0.98;;;11.20;99.90;;;;;;4233977;28;20122;-83
2023/08/31 04:07:56;;;;;;;1.52;0.70;;;11.20;99.90;;;;;;4234308;28;20498;-83
2023/08/31 04:09:57;;;;;;;1.05;0.60;;;11.20;99.90;;;;;;4233954;28;20036;-83
2023/08/31 04:11:58;;;;;;;3.15;0.50;;;11.20;99.90;;;;;;4233305;28;20039;-83
2023/08/31 04:13:59;;;;;;;1.95;0.70;;;11.20;99.90;;;;;;4214119;28;20520;-83
2023/08/31 04:16:00;;;;;;;2.97;0.80;;;12.70;99.90;;;;;;4232193;28;20054;-83
2023/08/31 04:18:00;;;;;;;1.60;0.70;;;11.20;99.90;;;;;;4232792;28;20488;-83
2023/08/31 04:20:01;;;;;;;2.60;0.65;;;11.20;99.90;;;;;;4251212;27;20043;-83
2023/08/31 04:22:04;;;;;;;4.07;1.27;;;11.00;99.90;;;;;;4232992;28;20890;-83
2023/08/31 04:24:05;;;;;;;1.95;0.50;;;11.20;99.90;;;;;;4243876;27;20035;-83
2023/08/31 04:26:13;;;;;;;4.65;0.70;;;11.20;99.90;;;;;;4250580;27;20035;-83
2023/08/31 04:28:15;;;;;;;3.55;0.70;;;11.20;99.90;;;;;;4250800;27;20039;-83
2023/08/31 04:30:16;;;;;;;2.55;0.68;;;10.20;99.90;;;;;;4215307;28;20466;-83
2023/08/31 04:32:16;;;;;;;1.60;0.70;;;11.20;99.90;;;;;;4215379;28;20102;-84
2023/08/31 04:34:17;;;;;;;3.60;1.05;;;11.20;99.90;;;;;;4250815;27;20448;-83
2023/08/31 04:36:18;;;;;;;4.50;0.80;;;11.30;99.90;;;;;;4250670;27;20152;-83
2023/08/31 04:38:18;;;;;;;2.83;0.90;;;11.20;99.90;;;;;;4250319;27;20043;-83
2023/08/31 04:40:19;;;;;;;30.83;2.20;;;11.20;99.90;;;;;;4249129;27;20083;-83
2023/08/31 04:42:20;;;;;;;1.88;0.93;;;11.20;99.90;;;;;;4250178;27;20085;-83
2023/08/31 04:44:22;;;;;;;4.10;0.73;;;11.00;99.90;;;;;;4215067;28;20061;-83
2023/08/31 04:46:24;;;;;;;3.97;0.88;;;11.80;99.90;;;;;;4250540;27;20039;-83
2023/08/31 04:48:24;;;;;;;2.70;1.02;;;11.20;99.90;;;;;;4232662;28;20613;-83
2023/08/31 04:50:26;;;;;;;3.42;1.08;;;11.10;99.90;;;;;;4249881;27;20043;-83
2023/08/31 04:52:27;;;;;;;3.30;1.00;;;11.10;99.90;;;;;;4215222;28;20040;-83
2023/08/31 04:54:29;;;;;;;0.93;0.60;;;11.10;99.90;;;;;;4225609;28;20479;-83
2023/08/31 04:56:32;;;;;;;2.78;0.95;;;11.00;99.90;;;;;;4214545;28;20047;-83
2023/08/31 04:58:33;;;;;;;10.02;1.60;;;11.00;99.90;;;;;;4250345;27;20043;-83
2023/08/31 05:00:33;;;;;;;2.10;0.90;;;11.00;99.90;;;;;;4237996;27;20132;-83
2023/08/31 05:02:34;;;;;;;4.13;1.23;;;11.00;99.90;;;;;;4243958;27;20096;-83
2023/08/31 05:04:35;;;;;;;4.32;1.10;;;11.00;99.90;;;;;;4233031;28;20043;-83
2023/08/31 05:06:35;;;;;;;2.05;0.85;;;11.00;99.90;;;;;;4250056;27;20047;-83
2023/08/31 05:08:36;;;;;;;1.10;0.90;;;11.00;99.90;;;;;;4250018;27;20509;-83
2023/08/31 05:10:37;;;;;;;2.45;1.00;;;11.00;99.90;;;;;;4231556;28;20515;-84
2023/08/31 05:12:39;;;;;;;3.10;1.10;;;10.90;99.90;;;;;;4220760;28;20044;-83
2023/08/31 05:14:40;;;;;;;4.18;1.48;;;11.00;99.90;;;;;;4214666;28;20040;-83
2023/08/31 05:16:43;;;;;;;4.35;0.80;;;11.00;99.90;;;;;;4215961;28;20085;-83
2023/08/31 05:18:44;;;;;;;3.35;1.20;;;10.90;99.90;;;;;;4215935;28;20054;-84
2023/08/31 05:20:46;;;;;;;2.10;0.90;;;11.00;99.90;;;;;;4214664;28;20040;-83
2023/08/31 05:22:48;;;;;;;3.15;1.10;;;11.00;99.90;;;;;;4214064;28;20040;-83
2023/08/31 05:24:48;;;;;;;4.35;1.02;;;10.90;99.90;;;;;;4219184;28;20479;-82
2023/08/31 05:26:50;;;;;;;3.13;1.30;;;10.90;99.90;;;;;;4213070;28;20051;-83
2023/08/31 05:28:50;;;;;;;2.45;1.23;;;11.00;99.90;;;;;;4205185;28;20044;-83
2023/08/31 05:30:55;;;;;;;5.05;1.33;;;11.20;99.90;;;;;;4231167;28;20928;-82
2023/08/31 05:32:56;;;;;;;4.97;1.10;;;11.20;99.90;;;;;;4223138;28;20043;-83
2023/08/31 05:34:58;;;;;;;3.25;1.10;;;11.10;99.90;;;;;;4232078;28;20034;-83
2023/08/31 05:36:58;;;;;;;3.38;1.17;;;11.10;99.90;;;;;;4214100;28;20048;-83
2023/08/31 05:38:59;;;;;;;3.95;1.20;;;11.10;99.90;;;;;;4232491;28;20515;-83
2023/08/31 05:41:07;;;;;;;2.85;1.08;;;11.20;99.90;;;;;;4232619;28;20054;-83
2023/08/31 05:43:08;;;;;;;2.25;1.10;;;11.20;99.90;;;;;;4213669;28;20592;-83
2023/08/31 05:45:09;;;;;;;3.97;1.55;;;11.30;99.90;;;;;;4215571;28;20036;-83
2023/08/31 05:47:10;;;;;;;4.38;1.00;;;11.30;99.90;;;;;;4215568;28;20503;-83
2023/08/31 05:49:10;;;;;;;5.90;1.63;;;11.40;99.90;;;;;;4214049;28;20044;-83
2023/08/31 05:51:11;;;;;;;8.23;1.10;;;11.40;99.90;;;;;;4215074;28;20419;-83
2023/08/31 05:53:13;;;;;;;3.33;0.90;;;11.40;99.90;;;;;;4213992;28;20492;-83
2023/08/31 05:55:14;;;;;;;6.68;1.15;;;11.60;99.90;;;;;;4229498;28;20035;-83
2023/08/31 05:57:19;;;;;;;2.33;1.02;;;11.60;99.90;;;;;;4230821;28;20061;-83
2023/08/31 05:59:21;;;;;;;3.78;0.98;;;11.60;99.90;;;;;;4215030;28;20055;-83
2023/08/31 06:01:24;;;;;;;4.93;0.88;;;11.70;99.90;;;;;;4214549;28;20511;-83
2023/08/31 06:03:26;;;;;;;2.85;1.00;;;11.70;99.90;;;;;;4232191;28;20054;-83
2023/08/31 06:05:28;;;;;;;3.95;1.08;;;11.80;99.90;;;;;;4231858;28;20479;-83
2023/08/31 06:07:29;;;;;;;4.60;1.20;;;11.90;99.90;;;;;;4213849;28;20073;-83
2023/08/31 06:09:30;;;;;;;6.07;0.90;;;11.90;99.90;;;;;;4230571;28;20079;-83
2023/08/31 06:11:31;;;;;;;1.60;0.70;;;12.00;99.90;;;;;;4213880;28;20086;-83
2023/08/31 06:13:33;;;;;;;1.92;1.00;;;12.10;99.90;;;;;;4232935;28;20044;-83
2023/08/31 06:15:34;;;;;;;2.97;0.75;;;12.20;99.90;;;;;;4241698;27;20047;-83
2023/08/31 06:17:36;;;;;;;5.00;1.33;;;12.30;99.90;;;;;;4248723;27;20126;-83
2023/08/31 06:19:38;;;;;;;4.25;0.80;;;12.40;99.90;;;;;;4249089;27;20081;-83
2023/08/31 06:21:38;;;;;;;5.57;0.95;;;12.60;99.90;;;;;;4248919;27;20077;-83
2023/08/31 06:23:39;;;;;;;3.47;1.10;;;12.60;99.90;;;;;;4206768;28;20473;-83
2023/08/31 06:25:40;;;;;;;3.35;0.98;;;12.70;99.90;;;;;;4217097;28;20048;-83
2023/08/31 06:27:43;;;;;;;10.00;0.90;;;12.80;99.90;;;;;;4246457;27;20039;-83
2023/08/31 06:29:44;;;;;;;3.55;1.00;;;13.90;99.90;;;;;;4248661;27;20035;-83
2023/08/31 06:31:45;;;;;;;5.13;1.40;;;12.90;99.90;;;;;;4248421;27;20039;-83
2023/08/31 06:33:46;;;;;;;5.55;1.00;;;13.00;99.90;;;;;;4248503;27;20126;-83
2023/08/31 06:35:48;;;;;;;2.03;1.00;;;13.10;99.90;;;;;;4248361;27;20039;-83
2023/08/31 06:37:50;;;;;;;3.67;1.20;;;13.20;99.90;;;;;;4248294;27;20043;-83
2023/08/31 06:39:51;;;;;;;3.95;0.70;;;13.80;99.90;;;;;;4247880;27;20459;-84
2023/08/31 06:41:51;;;;;;;4.20;0.82;;;13.40;99.90;;;;;;4230260;28;20059;-84
2023/08/31 06:43:52;;;;;;;2.50;1.00;;;13.50;99.90;;;;;;4197664;28;20045;-84
2023/08/31 06:45:53;;;;;;;3.42;0.75;;;13.60;99.90;;;;;;4213508;28;20040;-84
2023/08/31 06:47:54;;;;;;;7.95;1.55;;;13.70;99.90;;;;;;4231594;28;20479;-84
2023/08/31 06:49:55;;;;;;;2.97;0.80;;;13.80;99.90;;;;;;4231917;28;20075;-83
2023/08/31 06:51:56;;;;;;;1.55;0.55;;;13.90;99.90;;;;;;4231715;28;20043;-83
2023/08/31 06:54:01;;;;;;;3.00;0.80;;;13.90;99.90;;;;;;4235389;27;20039;-84
2023/08/31 06:56:03;;;;;;;3.17;1.08;;;;;;;;;;4229330;28;20039;-83
2023/08/31 06:58:05;;;;;;;1.60;0.63;;;;;;;;;;4213408;28;20040;-83
2023/08/31 07:00:08;;;;;;;4.13;0.98;;;;;;;;;;4240466;28;20042;-83
2023/08/31 07:02:09;;;;;;;3.38;0.60;;;14.10;99.90;;;;;;4219787;28;20048;-83
2023/08/31 07:04:09;;;;;;;3.85;0.93;;;14.40;99.90;;;;;;4229763;28;20419;-83
2023/08/31 07:06:11;;;;;;;4.53;1.00;;;;;;;;;;4248117;27;20075;-83
2023/08/31 07:08:13;;;;;;;3.75;0.70;;;;;;;;;;4248196;28;20047;-83
2023/08/31 07:10:14;;;;;;;4.32;0.70;;;;;;;;;;4247930;28;20039;-83
2023/08/31 07:12:15;;;;;;;3.40;0.40;;;;;;;;;;4222424;28;20048;-83
2023/08/31 07:14:16;;;;;;;5.03;0.80;;;14.60;99.90;;;;;;4230516;28;20399;-84
2023/08/31 07:16:18;;;;;;;6.57;1.30;;;;;;;;;;4212810;28;20063;-83
2023/08/31 07:18:19;;;;;;;7.07;1.17;;;;;;;;;;4231494;28;20046;-84
2023/08/31 07:20:20;;;;;;;9.25;1.40;;;;;;;;;;4212662;28;20044;-83
2023/08/31 07:22:21;;;;;;;6.15;1.48;;;;;;;;;;4213036;28;20040;-83
2023/08/31 07:24:25;;;;;;;4.20;0.90;;;;;;;;;;4234102;28;20083;-83
2023/08/31 07:26:26;;;;;;;5.70;0.93;;;15.10;99.90;;;;;;4247259;28;20035;-83
2023/08/31 07:28:27;;;;;;;5.40;0.98;;;15.40;99.90;;;;;;4248010;28;20131;-83
2023/08/31 07:30:29;;;;;;;3.17;0.95;;;15.50;99.90;;;;;;4205702;28;20052;-83
2023/08/31 07:32:31;;;;;;;4.07;1.05;;;;;;;;;;4238050;28;20043;-83
2023/08/31 07:34:32;;;;;;;1.83;0.40;;;;;;;;;;4248026;28;20407;-83
2023/08/31 07:36:33;;;;;;;4.22;0.65;;;;;;;;;;4229604;28;20092;-83
2023/08/31 07:38:34;;;;;;;3.75;0.60;;;15.60;99.90;;;;;;4247659;28;20046;-83
2023/08/31 07:40:35;;;;;;;3.22;0.82;;;16.00;99.90;;;;;;4212959;28;20531;-82
2023/08/31 07:42:36;;;;;;;0.47;0.40;;;16.10;99.90;;;;;;4222436;28;20512;-82
2023/08/31 07:44:36;;;;;;;1.80;0.50;;;16.20;99.90;;;;;;4230980;28;20058;-81
2023/08/31 07:46:37;;;;;;;2.58;0.73;;;16.20;99.90;;;;;;4213084;28;20528;-82
2023/08/31 07:48:42;;;;;;;2.85;0.63;;;16.30;99.90;;;;;;4231088;28;20081;-83
2023/08/31 07:50:43;;;;;;;3.38;0.60;;;16.40;99.90;;;;;;4230971;28;20051;-83
2023/08/31 07:52:44;;;;;;;2.05;0.85;;;16.50;99.90;;;;;;4230823;28;20055;-81
2023/08/31 07:54:51;;;;;;;1.25;0.30;;;16.50;99.90;;;;;;4232604;28;20047;-81
2023/08/31 07:56:52;;;;;;;7.45;0.60;;;16.80;99.90;;;;;;4217220;28;20055;-84
2023/08/31 07:58:53;;;;;;;2.83;0.50;;;16.80;99.90;;;;;;4197286;28;20048;-83
2023/08/31 08:00:55;;;;;;;1.45;0.30;;;16.90;99.90;;;;;;4231214;28;20414;-82
2023/08/31 08:02:56;;;;;;;2.25;0.35;;;17.00;99.90;;;;;;4231263;28;20040;-83
2023/08/31 08:04:57;;;;;;;2.30;0.82;;;17.20;99.90;;;;;;4231041;28;20105;-82
2023/08/31 08:06:58;;;;;;;1.42;0.50;;;16.10;99.90;;;;;;4231201;28;20047;-81
2023/08/31 08:08:59;;;;;;;2.83;0.40;;;17.30;99.90;;;;;;4212889;28;20040;-82
2023/08/31 08:10:59;;;;;;;1.50;0.40;;;17.40;99.90;;;;;;4230813;28;20039;-82
2023/08/31 08:13:00;;;;;;;3.28;0.40;;;17.50;99.90;;;;;;4212510;28;20048;-82
2023/08/31 08:15:02;;;;;;;0.77;0.35;;;17.60;99.90;;;;;;4215452;28;20221;-83
2023/08/31 08:17:03;;;;;;;4.82;0.40;;;17.80;99.90;;;;;;4233444;28;20518;-83
2023/08/31 08:19:06;;;;;;;2.05;0.52;;;17.90;99.90;;;;;;4233274;28;20387;-83
2023/08/31 08:21:07;;;;;;;2.97;0.73;;;17.80;99.90;;;;;;4233978;28;20035;-83
2023/08/31 08:23:07;;;;;;;5.03;0.60;;;17.80;99.90;;;;;;4215737;28;20097;-82
2023/08/31 08:25:08;;;;;;;1.20;0.73;;;17.80;99.90;;;;;;4234091;28;20036;-81
2023/08/31 08:27:09;;;;;;;4.07;0.60;;;17.80;99.90;;;;;;4198026;28;20088;-82
2023/08/31 08:29:10;;;;;;;3.60;0.32;;;17.90;99.90;;;;;;4233745;28;20150;-81
2023/08/31 08:31:11;;;;;;;2.88;0.30;;;18.10;99.90;;;;;;4233747;28;20071;-82
2023/08/31 08:33:12;;;;;;;4.90;0.50;;;18.50;99.90;;;;;;4216347;28;20043;-82
2023/08/31 08:35:12;;;;;;;2.90;0.40;;;18.60;99.90;;;;;;4226541;28;20055;-82
2023/08/31 08:37:14;;;;;;;1.73;0.73;;;18.60;99.90;;;;;;4233495;28;20043;-82
2023/08/31 08:39:15;;;;;;;5.13;0.73;;;18.70;99.90;;;;;;4233358;28;20048;-82
2023/08/31 08:41:22;;;;;;;0.98;0.40;;;18.90;99.90;;;;;;4215748;28;20436;-82
2023/08/31 08:43:26;;;;;;;2.38;0.20;;;19.10;99.90;;;;;;4233456;28;20051;-82
2023/08/31 08:45:36;;;;;;;2.42;0.40;;;19.20;99.90;;;;;;4233837;28;20053;-82
2023/08/31 08:47:37;;;;;;;0.80;0.30;;;19.20;99.90;;;;;;4215307;28;20055;-83
2023/08/31 08:49:38;;;;;;;4.68;0.50;;;19.40;99.90;;;;;;4214931;28;20043;-84
2023/08/31 08:51:40;;;;;;;0.68;0.20;;;19.50;99.90;;;;;;4233476;28;20031;-83
2023/08/31 08:53:45;;;;;;;2.53;0.40;;;19.40;99.90;;;;;;4233430;28;20055;-83
2023/08/31 08:55:45;;;;;;;0.85;0.20;;;19.50;99.90;;;;;;4238844;27;20347;-85
2023/08/31 08:57:46;;;;;;;2.80;0.40;;;19.70;99.90;;;;;;4250668;27;20047;-83
2023/08/31 08:59:47;;;;;;;1.13;0.30;;;19.70;99.90;;;;;;4250904;27;20053;-83
2023/08/31 09:01:48;;;;;;;1.13;0.40;;;19.80;99.90;;;;;;4251273;27;20043;-84
2023/08/31 09:03:49;;;;;;;2.58;0.30;;;20.00;99.90;;;;;;4242443;27;20035;-84
2023/08/31 09:06:02;;;;;;;0.95;0.30;;;20.40;99.90;;;;;;4248518;27;20406;-84
2023/08/31 09:08:04;;;;;;;5.03;1.30;;;20.50;99.90;;;;;;4232580;28;20035;-84
2023/08/31 09:10:05;;;;;;;1.95;0.40;;;20.50;99.90;;;;;;4250686;27;20039;-82
2023/08/31 09:12:08;;;;;;;2.38;0.20;;;20.40;99.90;;;;;;4215433;28;20044;-84
2023/08/31 09:14:19;;;;;;;1.08;0.22;;;20.20;99.90;;;;;;4250696;27;20487;-84
2023/08/31 09:16:30;;;;;;;1.42;0.40;;;20.00;99.90;;;;;;4232173;28;20465;-83
2023/08/31 09:18:32;;;;;;;0.95;0.20;;;19.60;99.90;;;;;;4250095;27;20124;-83
2023/08/31 09:20:46;;;;;;;2.05;0.40;;;19.40;99.90;;;;;;4250101;27;20042;-83
2023/08/31 09:22:48;;;;;;;1.65;0.50;;;19.00;99.90;;;;;;4231435;28;20054;-83
2023/08/31 09:24:49;;;;;;;0.75;0.20;;;18.70;99.90;;;;;;4249501;27;20084;-83
2023/08/31 09:26:55;;;;;;;3.15;0.40;;;18.40;99.90;;;;;;4249854;27;20043;-84
2023/08/31 09:28:56;;;;;;;0.82;0.35;;;18.20;99.90;;;;;;4250288;27;20411;-84
2023/08/31 09:31:06;;;;;;;1.20;0.50;;;18.20;99.90;;;;;;4231879;28;20036;-83
2023/08/31 09:33:09;;;;;;;4.57;2.13;;;18.50;99.90;;;;;;4209368;28;20040;-83
2023/08/31 09:35:11;;;;;;;7.88;0.77;;;18.90;99.90;;;;;;4232562;28;20039;-84
2023/08/31 09:37:12;;;;;;;1.25;0.40;;;19.40;99.90;;;;;;4227902;28;20122;-83
2023/08/31 09:39:14;;;;;;;3.10;0.88;;;19.80;99.90;;;;;;4248623;27;20050;-83
2023/08/31 09:41:16;;;;;;;1.38;0.30;;;20.20;99.90;;;;;;4232768;28;20074;-83
2023/08/31 09:43:22;;;;;;;2.47;0.30;;;20.50;99.90;;;;;;4231374;28;20036;-84
2023/08/31 09:45:41;;;;;;;1.25;0.35;;;20.80;99.90;;;;;;4249754;27;20039;-84
2023/08/31 09:47:42;;;;;;;0.60;0.35;;;21.10;99.90;;;;;;4232435;28;20110;-85
2023/08/31 09:49:44;;;;;;;3.30;0.68;;;20.90;99.90;;;;;;4249417;27;20047;-84
2023/08/31 09:51:47;;;;;;;1.08;0.38;;;20.80;99.90;;;;;;4227569;28;20043;-85
2023/08/31 09:53:49;;;;;;;1.58;0.40;;;20.50;99.90;;;;;;4231570;28;20039;-84
2023/08/31 09:55:52;;;;;;;1.15;0.30;;;20.50;99.90;;;;;;4239048;27;20103;-84
2023/08/31 09:57:56;;;;;;;0.90;0.20;;;20.80;99.90;;;;;;4250645;27;20039;-84
2023/08/31 09:59:58;;;;;;;1.33;0.20;;;20.90;99.90;;;;;;4250069;27;20164;-83
2023/08/31 10:02:01;;;;;;;1.85;0.30;;;21.10;99.90;;;;;;4250518;27;20035;-83
2023/08/31 10:04:03;;;;;;;1.08;0.22;;;21.20;99.90;;;;;;4240992;27;20114;-83
2023/08/31 10:06:04;;;;;;;0.63;0.20;;;21.40;99.90;;;;;;4248223;27;20360;-84
2023/08/31 10:08:11;;;;;;;1.42;0.45;;;21.80;99.90;;;;;;4250153;27;20140;-84
2023/08/31 10:10:12;;;;;;;2.05;0.30;;;22.00;99.90;;;;;;4250556;27;20399;-83
2023/08/31 10:12:14;;;;;;;1.33;0.40;;;21.90;99.90;;;;;;4249762;27;20047;-83
2023/08/31 10:14:22;;;;;;;2.47;0.20;;;22.00;99.90;;;;;;4248718;27;20126;-85
2023/08/31 10:16:25;;;;;;;2.78;0.65;;;21.40;99.90;;;;;;4249234;27;20043;-84
2023/08/31 10:18:27;;;;;;;2.65;0.50;;;22.30;99.90;;;;;;4230677;28;20043;-84
2023/08/31 10:20:31;;;;;;;2.13;0.45;;;22.30;99.90;;;;;;4230545;28;20047;-84
2023/08/31 10:22:33;;;;;;;3.00;0.38;;;22.40;99.90;;;;;;4239717;27;20039;-84
2023/08/31 10:24:59;;;;;;;5.13;0.65;;;22.60;99.90;;;;;;4213749;28;20062;-84
2023/08/31 10:27:18;;;;;;;1.35;0.30;;;22.70;99.90;;;;;;4231283;28;20054;-84
2023/08/31 10:29:30;;;;;;;2.80;0.28;;;22.90;99.90;;;;;;4231811;28;20096;-84
2023/08/31 10:31:32;;;;;;;2.58;0.55;;;23.00;99.90;;;;;;4230340;28;20065;-85
2023/08/31 10:33:43;;;;;;;0.77;0.40;;;23.20;99.90;;;;;;4236197;27;20036;-85
2023/08/31 10:35:56;;;;;;;2.88;0.40;;;23.10;99.90;;;;;;4228431;28;20059;-84
2023/08/31 10:38:26;;;;;;;1.35;0.30;;;23.20;99.90;;;;;;4237076;27;20422;-84
2023/08/31 10:40:28;;;;;;;0.63;0.28;;;23.50;99.90;;;;;;4218803;28;20051;-84
2023/08/31 10:42:29;;;;;;;0.73;0.30;;;23.20;99.90;;;;;;4241895;27;20047;-84
2023/08/31 10:44:34;;;;;;;0.90;0.30;;;23.10;99.90;;;;;;4248462;27;20062;-84